createdAt,value
2023-04-17T00:00:38.405Z,8.15
2023-04-17T00:01:38.358Z,8.16
2023-04-17T00:02:38.600Z,8.15
2023-04-17T00:03:38.439Z,8.15
2023-04-17T00:04:38.577Z,8.15
2023-04-17T00:05:38.342Z,8.12
2023-04-17T00:06:38.289Z,8.12
2023-04-17T00:07:38.300Z,8.15
2023-04-17T00:08:38.268Z,8.15
2023-04-17T00:09:38.253Z,8.15
2023-04-17T00:10:38.243Z,8.12
2023-04-17T00:11:38.243Z,8.11
2023-04-17T00:12:38.275Z,8.15
2023-04-17T00:13:38.229Z,8.12
2023-04-17T00:14:38.223Z,8.11
2023-04-17T00:15:38.188Z,8.08
2023-04-17T00:16:38.229Z,8.10
2023-04-17T00:17:38.197Z,8.10
2023-04-17T00:18:38.223Z,8.10
2023-04-17T00:19:38.149Z,8.10
2023-04-17T00:20:38.188Z,8.11
2023-04-17T00:21:38.178Z,8.10
2023-04-17T00:22:38.124Z,8.05
2023-04-17T00:23:38.174Z,8.08
2023-04-17T00:24:38.100Z,8.10
2023-04-17T00:25:38.117Z,8.10
2023-04-17T00:26:38.148Z,8.08
2023-04-17T00:27:38.056Z,8.08
2023-04-17T00:28:38.069Z,8.07
2023-04-17T00:29:38.057Z,8.08
2023-04-17T00:30:38.100Z,8.07
2023-04-17T00:31:38.074Z,8.07
2023-04-17T00:32:38.079Z,8.07
2023-04-17T00:33:38.032Z,8.07
2023-04-17T00:34:38.009Z,8.04
2023-04-17T00:35:37.993Z,8.08
2023-04-17T00:36:38.020Z,8.07
2023-04-17T00:37:37.951Z,8.07
2023-04-17T00:38:37.959Z,8.05
2023-04-17T00:39:37.984Z,8.07
2023-04-17T00:40:37.942Z,8.05
2023-04-17T00:41:37.929Z,8.05
2023-04-17T00:42:37.936Z,8.04
2023-04-17T00:43:37.904Z,8.01
2023-04-17T00:44:37.902Z,8.01
2023-04-17T00:45:37.869Z,8.01
2023-04-17T00:46:37.900Z,7.98
2023-04-17T00:47:37.935Z,8.00
2023-04-17T00:48:37.883Z,8.00
2023-04-17T00:49:37.842Z,8.00
2023-04-17T00:50:37.836Z,8.00
2023-04-17T00:51:37.803Z,7.98
2023-04-17T00:52:37.818Z,7.98
2023-04-17T00:53:37.790Z,7.98
2023-04-17T00:54:37.802Z,7.98
2023-04-17T00:55:37.769Z,7.98
2023-04-17T00:56:37.765Z,7.97
2023-04-17T00:57:37.768Z,7.95
2023-04-17T00:58:37.748Z,7.97
2023-04-17T00:59:37.750Z,7.97
2023-04-17T01:00:37.710Z,7.95
2023-04-17T01:01:37.921Z,7.97
2023-04-17T01:02:38.462Z,7.95
2023-04-17T01:03:37.920Z,7.92
2023-04-17T01:04:37.679Z,7.93
2023-04-17T01:05:37.665Z,7.92
2023-04-17T01:06:37.654Z,7.92
2023-04-17T01:07:37.637Z,7.95
2023-04-17T01:08:37.632Z,7.90
2023-04-17T01:09:37.599Z,7.92
2023-04-17T01:10:37.615Z,7.90
2023-04-17T01:11:37.618Z,7.92
2023-04-17T01:12:37.598Z,7.89
2023-04-17T01:13:37.616Z,7.89
2023-04-17T01:14:37.554Z,7.89
2023-04-17T01:15:37.606Z,7.89
2023-04-17T01:16:37.548Z,7.89
2023-04-17T01:17:37.556Z,7.92
2023-04-17T01:18:37.516Z,7.92
2023-04-17T01:19:37.509Z,7.92
2023-04-17T01:20:37.562Z,7.92
2023-04-17T01:21:37.474Z,7.93
2023-04-17T01:22:37.485Z,7.93
2023-04-17T01:23:37.473Z,7.92
2023-04-17T01:24:37.490Z,7.92
2023-04-17T01:25:37.429Z,7.90
2023-04-17T01:26:37.440Z,7.92
2023-04-17T01:27:37.424Z,7.90
2023-04-17T01:28:37.482Z,7.89
2023-04-17T01:29:37.435Z,7.90
2023-04-17T01:30:37.422Z,7.92
2023-04-17T01:31:37.364Z,7.92
2023-04-17T01:32:37.400Z,7.90
2023-04-17T01:33:37.369Z,7.90
2023-04-17T01:34:37.768Z,7.89
2023-04-17T01:35:37.349Z,7.89
2023-04-17T01:36:37.345Z,7.87
2023-04-17T01:37:37.333Z,7.87
2023-04-17T01:38:37.317Z,7.86
2023-04-17T01:39:37.305Z,7.86
2023-04-17T01:40:37.339Z,7.87
2023-04-17T01:41:37.280Z,7.83
2023-04-17T01:42:37.350Z,7.83
2023-04-17T01:43:37.278Z,7.83
2023-04-17T01:44:37.235Z,7.83
2023-04-17T01:45:37.239Z,7.83
2023-04-17T01:46:37.271Z,7.82
2023-04-17T01:47:37.314Z,7.83
2023-04-17T01:48:37.203Z,7.82
2023-04-17T01:49:37.231Z,7.80
2023-04-17T01:50:37.177Z,7.82
2023-04-17T01:51:37.158Z,7.80
2023-04-17T01:52:37.164Z,7.75
2023-04-17T01:53:37.846Z,7.77
2023-04-17T01:54:37.134Z,7.77
2023-04-17T01:55:37.158Z,7.74
2023-04-17T01:56:37.146Z,7.75
2023-04-17T01:57:37.087Z,7.75
2023-04-17T01:58:37.108Z,7.79
2023-04-17T01:59:37.093Z,7.75
2023-04-17T02:00:37.091Z,7.74
2023-04-17T02:01:37.127Z,7.75
2023-04-17T02:02:37.177Z,7.72
2023-04-17T02:03:37.107Z,7.74
2023-04-17T02:04:37.086Z,7.74
2023-04-17T02:05:37.096Z,7.72
2023-04-17T02:06:36.998Z,7.72
2023-04-17T02:07:37.001Z,7.71
2023-04-17T02:08:37.020Z,7.71
2023-04-17T02:09:36.952Z,7.71
2023-04-17T02:10:36.960Z,7.69
2023-04-17T02:11:37.035Z,7.69
2023-04-17T02:12:36.961Z,7.68
2023-04-17T02:13:36.942Z,7.69
2023-04-17T02:14:36.999Z,7.71
2023-04-17T02:15:36.952Z,7.72
2023-04-17T02:16:36.900Z,7.69
2023-04-17T02:17:36.969Z,7.69
2023-04-17T02:18:36.893Z,7.69
2023-04-17T02:19:36.876Z,7.69
2023-04-17T02:20:36.890Z,7.72
2023-04-17T02:21:36.833Z,7.68
2023-04-17T02:22:36.818Z,7.67
2023-04-17T02:23:36.881Z,7.68
2023-04-17T02:24:36.851Z,7.67
2023-04-17T02:25:36.813Z,7.64
2023-04-17T02:26:36.801Z,7.64
2023-04-17T02:27:36.788Z,7.64
2023-04-17T02:28:36.830Z,7.63
2023-04-17T02:29:36.758Z,7.61
2023-04-17T02:30:36.743Z,7.61
2023-04-17T02:31:36.801Z,7.58
2023-04-17T02:32:36.817Z,7.58
2023-04-17T02:33:36.742Z,7.58
2023-04-17T02:34:36.734Z,7.58
2023-04-17T02:35:36.720Z,7.58
2023-04-17T02:36:36.731Z,7.57
2023-04-17T02:37:36.701Z,7.58
2023-04-17T02:38:36.694Z,7.60
2023-04-17T02:39:36.691Z,7.60
2023-04-17T02:40:36.642Z,7.60
2023-04-17T02:41:36.656Z,7.60
2023-04-17T02:42:36.662Z,7.58
2023-04-17T02:43:36.616Z,7.60
2023-04-17T02:44:36.597Z,7.58
2023-04-17T02:45:36.632Z,7.57
2023-04-17T02:46:36.605Z,7.58
2023-04-17T02:47:36.623Z,7.57
2023-04-17T02:48:36.585Z,7.57
2023-04-17T02:49:36.530Z,7.58
2023-04-17T02:50:36.544Z,7.55
2023-04-17T02:51:36.537Z,7.55
2023-04-17T02:52:36.540Z,7.57
2023-04-17T02:53:36.508Z,7.53
2023-04-17T02:54:36.513Z,7.52
2023-04-17T02:55:36.461Z,7.53
2023-04-17T02:56:36.513Z,7.52
2023-04-17T02:57:36.440Z,7.50
2023-04-17T02:58:36.495Z,7.50
2023-04-17T02:59:36.477Z,7.49
2023-04-17T03:00:36.491Z,7.49
2023-04-17T03:01:36.413Z,7.52
2023-04-17T03:02:36.706Z,7.49
2023-04-17T03:03:36.521Z,7.48
2023-04-17T03:04:36.432Z,7.49
2023-04-17T03:05:36.384Z,7.50
2023-04-17T03:06:36.359Z,7.52
2023-04-17T03:07:36.369Z,7.52
2023-04-17T03:08:36.366Z,7.52
2023-04-17T03:09:36.347Z,7.50
2023-04-17T03:10:36.308Z,7.50
2023-04-17T03:11:36.312Z,7.49
2023-04-17T03:12:36.353Z,7.48
2023-04-17T03:13:36.324Z,7.43
2023-04-17T03:14:36.273Z,7.45
2023-04-17T03:15:36.280Z,7.40
2023-04-17T03:16:36.272Z,7.42
2023-04-17T03:17:36.252Z,7.40
2023-04-17T03:18:36.276Z,7.39
2023-04-17T03:19:36.223Z,7.39
2023-04-17T03:20:36.195Z,7.37
2023-04-17T03:21:36.227Z,7.34
2023-04-17T03:22:36.198Z,7.35
2023-04-17T03:23:36.264Z,7.39
2023-04-17T03:24:36.178Z,7.35
2023-04-17T03:25:36.183Z,7.35
2023-04-17T03:26:36.195Z,7.35
2023-04-17T03:27:36.178Z,7.37
2023-04-17T03:28:36.145Z,7.37
2023-04-17T03:29:36.126Z,7.37
2023-04-17T03:30:36.116Z,7.35
2023-04-17T03:31:36.181Z,7.39
2023-04-17T03:32:36.102Z,7.39
2023-04-17T03:33:36.166Z,7.37
2023-04-17T03:34:36.057Z,7.39
2023-04-17T03:35:36.139Z,7.37
2023-04-17T03:36:36.065Z,7.35
2023-04-17T03:37:36.049Z,7.37
2023-04-17T03:38:36.016Z,7.35
2023-04-17T03:39:36.032Z,7.37
2023-04-17T03:40:36.080Z,7.35
2023-04-17T03:41:36.036Z,7.34
2023-04-17T03:42:35.993Z,7.34
2023-04-17T03:43:36.003Z,7.34
2023-04-17T03:44:35.954Z,7.32
2023-04-17T03:45:36.041Z,7.30
2023-04-17T03:46:35.918Z,7.30
2023-04-17T03:47:36.148Z,7.28
2023-04-17T03:48:35.944Z,7.28
2023-04-17T03:49:35.956Z,7.27
2023-04-17T03:50:35.887Z,7.25
2023-04-17T03:51:35.965Z,7.23
2023-04-17T03:52:35.853Z,7.21
2023-04-17T03:53:35.886Z,7.17
2023-04-17T03:54:35.987Z,7.16
2023-04-17T03:55:35.839Z,7.15
2023-04-17T03:56:35.817Z,7.15
2023-04-17T03:57:35.874Z,7.13
2023-04-17T03:58:35.800Z,7.13
2023-04-17T03:59:35.782Z,7.13
2023-04-17T04:00:35.823Z,7.13
2023-04-17T04:01:35.780Z,7.10
2023-04-17T04:02:35.847Z,7.07
2023-04-17T04:03:36.027Z,7.06
2023-04-17T04:04:35.876Z,7.06
2023-04-17T04:05:35.714Z,7.02
2023-04-17T04:06:36.256Z,7.02
2023-04-17T04:07:35.708Z,6.98
2023-04-17T04:08:35.685Z,6.97
2023-04-17T04:09:35.712Z,6.94
2023-04-17T04:10:35.651Z,6.97
2023-04-17T04:11:35.685Z,6.94
2023-04-17T04:12:35.635Z,6.94
2023-04-17T04:13:35.635Z,6.94
2023-04-17T04:14:35.571Z,6.94
2023-04-17T04:15:35.582Z,6.95
2023-04-17T04:16:35.672Z,6.94
2023-04-17T04:17:35.613Z,6.94
2023-04-17T04:18:35.623Z,6.92
2023-04-17T04:19:35.566Z,6.94
2023-04-17T04:20:35.550Z,6.89
2023-04-17T04:21:35.604Z,6.92
2023-04-17T04:22:35.470Z,6.91
2023-04-17T04:23:35.498Z,6.92
2023-04-17T04:24:35.566Z,6.89
2023-04-17T04:25:35.450Z,6.87
2023-04-17T04:26:35.429Z,6.88
2023-04-17T04:27:35.468Z,6.88
2023-04-17T04:28:35.429Z,6.87
2023-04-17T04:29:35.416Z,6.84
2023-04-17T04:30:35.391Z,6.85
2023-04-17T04:31:35.782Z,6.84
2023-04-17T04:32:35.414Z,6.81
2023-04-17T04:33:35.404Z,6.81
2023-04-17T04:34:35.366Z,6.80
2023-04-17T04:35:35.343Z,6.80
2023-04-17T04:36:35.343Z,6.81
2023-04-17T04:37:35.329Z,6.81
2023-04-17T04:38:35.298Z,6.81
2023-04-17T04:39:35.282Z,6.81
2023-04-17T04:40:35.293Z,6.85
2023-04-17T04:41:35.297Z,6.84
2023-04-17T04:42:35.787Z,6.80
2023-04-17T04:43:35.244Z,6.85
2023-04-17T04:44:35.455Z,6.84
2023-04-17T04:45:35.217Z,6.80
2023-04-17T04:46:35.574Z,6.85
2023-04-17T04:47:35.253Z,6.84
2023-04-17T04:48:35.195Z,6.84
2023-04-17T04:49:35.193Z,6.84
2023-04-17T04:50:35.192Z,6.84
2023-04-17T04:51:35.159Z,6.85
2023-04-17T04:52:35.142Z,6.84
2023-04-17T04:53:35.200Z,6.88
2023-04-17T04:54:35.114Z,6.87
2023-04-17T04:55:35.115Z,6.85
2023-04-17T04:56:35.814Z,6.87
2023-04-17T04:57:35.180Z,6.88
2023-04-17T04:58:35.155Z,6.88
2023-04-17T04:59:36.269Z,6.89
2023-04-17T05:00:35.127Z,6.87
2023-04-17T05:01:35.106Z,6.85
2023-04-17T05:02:35.165Z,6.87
2023-04-17T05:03:35.181Z,6.88
2023-04-17T05:04:35.124Z,6.89
2023-04-17T05:05:35.015Z,6.89
2023-04-17T05:06:35.028Z,6.89
2023-04-17T05:07:34.995Z,6.88
2023-04-17T05:08:35.053Z,6.87
2023-04-17T05:09:34.964Z,6.87
2023-04-17T05:10:34.963Z,6.85
2023-04-17T05:11:34.945Z,6.84
2023-04-17T05:12:34.974Z,6.87
2023-04-17T05:13:34.935Z,6.87
2023-04-17T05:14:34.917Z,6.80
2023-04-17T05:15:34.906Z,6.84
2023-04-17T05:16:34.894Z,6.81
2023-04-17T05:17:34.944Z,6.81
2023-04-17T05:18:34.878Z,6.80
2023-04-17T05:19:35.031Z,6.79
2023-04-17T05:20:34.848Z,6.80
2023-04-17T05:21:34.898Z,6.81
2023-04-17T05:22:34.820Z,6.84
2023-04-17T05:23:34.916Z,6.84
2023-04-17T05:24:34.838Z,6.85
2023-04-17T05:25:34.844Z,6.81
2023-04-17T05:26:34.778Z,6.84
2023-04-17T05:27:34.840Z,6.84
2023-04-17T05:28:34.789Z,6.84
2023-04-17T05:29:34.761Z,6.84
2023-04-17T05:30:34.792Z,6.85
2023-04-17T05:31:34.797Z,6.84
2023-04-17T05:32:34.758Z,6.80
2023-04-17T05:33:34.715Z,6.84
2023-04-17T05:34:34.699Z,6.81
2023-04-17T05:35:34.692Z,6.81
2023-04-17T05:36:35.652Z,6.80
2023-04-17T05:37:34.873Z,6.84
2023-04-17T05:38:34.657Z,6.81
2023-04-17T05:39:34.693Z,6.80
2023-04-17T05:40:34.624Z,6.85
2023-04-17T05:41:34.643Z,6.81
2023-04-17T05:42:34.609Z,6.81
2023-04-17T05:43:34.611Z,6.84
2023-04-17T05:44:34.598Z,6.80
2023-04-17T05:45:34.719Z,6.81
2023-04-17T05:46:34.558Z,6.80
2023-04-17T05:47:34.658Z,6.80
2023-04-17T05:48:34.552Z,6.79
2023-04-17T05:49:34.590Z,6.84
2023-04-17T05:50:34.655Z,6.80
2023-04-17T05:51:34.688Z,6.81
2023-04-17T05:52:34.520Z,6.80
2023-04-17T05:53:34.487Z,6.84
2023-04-17T05:54:35.242Z,6.84
2023-04-17T05:55:34.488Z,6.81
2023-04-17T05:56:34.443Z,6.84
2023-04-17T05:57:34.507Z,6.84
2023-04-17T05:58:34.427Z,6.84
2023-04-17T05:59:34.468Z,6.88
2023-04-17T06:00:34.543Z,6.87
2023-04-17T06:01:34.400Z,6.89
2023-04-17T06:02:34.472Z,6.88
2023-04-17T06:03:34.583Z,6.88
2023-04-17T06:04:34.713Z,6.88
2023-04-17T06:05:34.792Z,6.89
2023-04-17T06:06:34.364Z,6.92
2023-04-17T06:07:34.330Z,6.92
2023-04-17T06:08:34.767Z,6.92
2023-04-17T06:09:34.350Z,6.97
2023-04-17T06:10:34.318Z,6.98
2023-04-17T06:11:34.302Z,6.97
2023-04-17T06:12:36.454Z,6.99
2023-04-17T06:13:34.353Z,7.02
2023-04-17T06:14:35.892Z,7.05
2023-04-17T06:15:35.086Z,7.03
2023-04-17T06:16:34.455Z,7.05
2023-04-17T06:17:34.313Z,7.06
2023-04-17T06:18:34.271Z,7.09
2023-04-17T06:19:34.234Z,7.10
2023-04-17T06:20:34.261Z,7.10
2023-04-17T06:21:34.186Z,7.10
2023-04-17T06:22:34.210Z,7.12
2023-04-17T06:23:34.252Z,7.12
2023-04-17T06:24:34.285Z,7.15
2023-04-17T06:25:34.148Z,7.16
2023-04-17T06:26:34.249Z,7.15
2023-04-17T06:27:36.538Z,7.13
2023-04-17T06:28:34.127Z,7.13
2023-04-17T06:29:34.194Z,7.16
2023-04-17T06:30:34.208Z,7.17
2023-04-17T06:31:34.097Z,7.17
2023-04-17T06:32:34.158Z,7.17
2023-04-17T06:33:34.094Z,7.23
2023-04-17T06:34:34.196Z,7.24
2023-04-17T06:35:34.272Z,7.24
2023-04-17T06:36:34.041Z,7.27
2023-04-17T06:37:34.142Z,7.28
2023-04-17T06:38:33.988Z,7.31
2023-04-17T06:39:34.156Z,7.30
2023-04-17T06:40:34.010Z,7.31
2023-04-17T06:41:34.081Z,7.28
2023-04-17T06:42:34.417Z,7.28
2023-04-17T06:43:34.032Z,7.25
2023-04-17T06:44:33.931Z,7.27
2023-04-17T06:45:33.942Z,7.30
2023-04-17T06:46:34.010Z,7.31
2023-04-17T06:47:34.003Z,7.32
2023-04-17T06:48:34.906Z,7.35
2023-04-17T06:49:33.880Z,7.35
2023-04-17T06:50:33.881Z,7.37
2023-04-17T06:51:33.884Z,7.39
2023-04-17T06:52:33.861Z,7.43
2023-04-17T06:53:33.887Z,7.45
2023-04-17T06:54:34.003Z,7.43
2023-04-17T06:55:33.827Z,7.46
2023-04-17T06:56:33.864Z,7.49
2023-04-17T06:57:33.834Z,7.50
2023-04-17T06:58:33.813Z,7.52
2023-04-17T06:59:33.853Z,7.53
2023-04-17T07:00:33.817Z,7.52
2023-04-17T07:01:33.866Z,7.53
2023-04-17T07:02:34.043Z,7.55
2023-04-17T07:03:33.998Z,7.55
2023-04-17T07:04:33.806Z,7.55
2023-04-17T07:05:33.732Z,7.55
2023-04-17T07:06:33.796Z,7.57
2023-04-17T07:07:33.742Z,7.58
2023-04-17T07:08:33.825Z,7.64
2023-04-17T07:09:34.743Z,7.64
2023-04-17T07:10:33.696Z,7.68
2023-04-17T07:11:33.689Z,7.71
2023-04-17T07:12:33.721Z,7.72
2023-04-17T07:13:33.658Z,7.75
2023-04-17T07:14:33.652Z,7.79
2023-04-17T07:15:33.679Z,7.75
2023-04-17T07:16:33.718Z,7.77
2023-04-17T07:17:33.610Z,7.75
2023-04-17T07:18:33.647Z,7.77
2023-04-17T07:19:33.569Z,7.77
2023-04-17T07:20:33.603Z,7.80
2023-04-17T07:21:33.536Z,7.83
2023-04-17T07:22:33.549Z,7.83
2023-04-17T07:23:34.403Z,7.86
2023-04-17T07:24:33.545Z,7.89
2023-04-17T07:25:33.504Z,7.93
2023-04-17T07:26:33.701Z,7.92
2023-04-17T07:27:33.524Z,7.93
2023-04-17T07:28:33.475Z,7.98
2023-04-17T07:29:33.460Z,8.00
2023-04-17T07:30:33.628Z,8.04
2023-04-17T07:31:33.560Z,8.05
2023-04-17T07:32:33.465Z,8.04
2023-04-17T07:33:33.416Z,8.04
2023-04-17T07:34:33.423Z,8.07
2023-04-17T07:35:33.394Z,8.05
2023-04-17T07:36:33.381Z,8.08
2023-04-17T07:37:33.358Z,8.08
2023-04-17T07:38:33.415Z,8.11
2023-04-17T07:39:33.378Z,8.08
2023-04-17T07:40:33.433Z,8.15
2023-04-17T07:41:33.334Z,8.18
2023-04-17T07:42:33.373Z,8.20
2023-04-17T07:43:33.301Z,8.22
2023-04-17T07:44:33.293Z,8.19
2023-04-17T07:45:33.372Z,8.22
2023-04-17T07:46:33.310Z,8.22
2023-04-17T07:47:33.262Z,8.25
2023-04-17T07:48:33.248Z,8.30
2023-04-17T07:49:33.272Z,8.34
2023-04-17T07:50:33.242Z,8.41
2023-04-17T07:51:33.216Z,8.43
2023-04-17T07:52:34.177Z,8.44
2023-04-17T07:53:33.208Z,8.50
2023-04-17T07:54:33.300Z,8.50
2023-04-17T07:55:33.214Z,8.53
2023-04-17T07:56:33.148Z,8.56
2023-04-17T07:57:33.130Z,8.55
2023-04-17T07:58:33.138Z,8.53
2023-04-17T07:59:33.220Z,8.55
2023-04-17T08:00:33.167Z,8.56
2023-04-17T08:01:33.130Z,8.53
2023-04-17T08:02:33.261Z,8.59
2023-04-17T08:03:33.381Z,8.59
2023-04-17T08:04:33.391Z,8.59
2023-04-17T08:05:33.252Z,8.62
2023-04-17T08:06:33.141Z,8.63
2023-04-17T08:07:33.064Z,8.70
2023-04-17T08:08:33.318Z,8.74
2023-04-17T08:09:33.019Z,8.73
2023-04-17T08:10:32.993Z,8.77
2023-04-17T08:11:37.805Z,8.80
2023-04-17T08:12:33.009Z,8.80
2023-04-17T08:13:32.970Z,8.80
2023-04-17T08:14:32.993Z,8.87
2023-04-17T08:15:33.031Z,8.92
2023-04-17T08:16:32.957Z,8.96
2023-04-17T08:17:32.989Z,8.98
2023-04-17T08:18:33.072Z,9.02
2023-04-17T08:19:33.165Z,9.01
2023-04-17T08:20:32.911Z,8.99
2023-04-17T08:21:32.936Z,9.02
2023-04-17T08:22:32.884Z,9.08
2023-04-17T08:23:32.879Z,9.13
2023-04-17T08:24:32.876Z,9.14
2023-04-17T08:25:32.912Z,9.17
2023-04-17T08:26:32.826Z,9.21
2023-04-17T08:27:32.898Z,9.24
2023-04-17T08:28:32.810Z,9.28
2023-04-17T08:29:32.905Z,9.28
2023-04-17T08:30:32.849Z,9.31
2023-04-17T08:31:32.785Z,9.33
2023-04-17T08:32:32.918Z,9.42
2023-04-17T08:33:32.874Z,9.48
2023-04-17T08:34:32.806Z,9.57
2023-04-17T08:35:32.763Z,9.58
2023-04-17T08:36:32.748Z,9.64
2023-04-17T08:37:32.774Z,9.66
2023-04-17T08:38:32.777Z,9.71
2023-04-17T08:39:32.733Z,9.76
2023-04-17T08:40:32.751Z,9.79
2023-04-17T08:41:32.694Z,9.75
2023-04-17T08:42:33.888Z,9.72
2023-04-17T08:43:32.669Z,9.75
2023-04-17T08:44:32.645Z,9.76
2023-04-17T08:45:32.622Z,9.79
2023-04-17T08:46:32.794Z,9.76
2023-04-17T08:47:32.642Z,9.79
2023-04-17T08:48:32.687Z,9.81
2023-04-17T08:49:32.615Z,9.78
2023-04-17T08:50:32.768Z,9.78
2023-04-17T08:51:32.611Z,9.81
2023-04-17T08:52:32.558Z,9.84
2023-04-17T08:53:32.641Z,9.87
2023-04-17T08:54:32.702Z,9.91
2023-04-17T08:55:32.804Z,9.93
2023-04-17T08:56:32.554Z,9.96
2023-04-17T08:57:32.524Z,9.94
2023-04-17T08:58:32.564Z,9.91
2023-04-17T08:59:32.533Z,9.91
2023-04-17T09:00:32.834Z,9.91
2023-04-17T09:01:32.579Z,9.91
2023-04-17T09:02:32.565Z,9.97
2023-04-17T09:03:32.665Z,10.04
2023-04-17T09:04:32.506Z,10.02
2023-04-17T09:05:32.525Z,10.01
2023-04-17T09:06:32.392Z,10.01
2023-04-17T09:07:32.388Z,10.02
2023-04-17T09:08:32.380Z,10.09
2023-04-17T09:09:32.361Z,10.08
2023-04-17T09:10:32.380Z,10.09
2023-04-17T09:11:32.458Z,10.18
2023-04-17T09:12:32.401Z,10.25
2023-04-17T09:13:32.522Z,10.25
2023-04-17T09:14:32.405Z,10.25
2023-04-17T09:15:32.338Z,10.26
2023-04-17T09:16:32.398Z,10.22
2023-04-17T09:17:32.488Z,10.20
2023-04-17T09:18:32.274Z,10.18
2023-04-17T09:19:34.581Z,10.26
2023-04-17T09:20:32.251Z,10.26
2023-04-17T09:21:32.237Z,10.26
2023-04-17T09:22:32.249Z,10.32
2023-04-17T09:23:32.244Z,10.38
2023-04-17T09:24:32.345Z,10.41
2023-04-17T09:25:32.187Z,10.44
2023-04-17T09:26:32.252Z,10.48
2023-04-17T09:27:32.183Z,10.51
2023-04-17T09:28:32.210Z,10.55
2023-04-17T09:29:32.250Z,10.52
2023-04-17T09:30:32.269Z,10.56
2023-04-17T09:31:32.307Z,10.60
2023-04-17T09:32:32.339Z,10.67
2023-04-17T09:33:32.115Z,10.71
2023-04-17T09:34:32.159Z,10.82
2023-04-17T09:35:32.120Z,10.85
2023-04-17T09:36:32.110Z,10.85
2023-04-17T09:37:32.273Z,10.88
2023-04-17T09:38:32.121Z,10.85
2023-04-17T09:39:32.067Z,10.84
2023-04-17T09:40:32.062Z,10.84
2023-04-17T09:41:32.478Z,10.82
2023-04-17T09:42:32.930Z,10.76
2023-04-17T09:43:32.092Z,10.76
2023-04-17T09:44:32.128Z,10.76
2023-04-17T09:45:31.983Z,10.74
2023-04-17T09:46:32.067Z,10.82
2023-04-17T09:47:32.145Z,10.88
2023-04-17T09:48:32.046Z,11.00
2023-04-17T09:49:32.106Z,11.00
2023-04-17T09:50:32.028Z,11.04
2023-04-17T09:51:31.984Z,11.11
2023-04-17T09:52:31.971Z,11.18
2023-04-17T09:53:31.993Z,11.21
2023-04-17T09:54:31.941Z,11.24
2023-04-17T09:55:32.194Z,11.29
2023-04-17T09:56:31.891Z,11.33
2023-04-17T09:57:31.850Z,11.27
2023-04-17T09:58:31.916Z,11.21
2023-04-17T09:59:31.859Z,11.21
2023-04-17T10:00:31.871Z,11.24
2023-04-17T10:01:32.035Z,11.24
2023-04-17T10:02:31.969Z,11.25
2023-04-17T10:03:33.074Z,11.29
2023-04-17T10:04:32.025Z,11.42
2023-04-17T10:05:31.781Z,11.47
2023-04-17T10:06:31.784Z,11.60
2023-04-17T10:07:31.728Z,11.61
2023-04-17T10:08:31.847Z,11.76
2023-04-17T10:09:31.728Z,11.88
2023-04-17T10:10:32.363Z,11.85
2023-04-17T10:11:34.315Z,11.85
2023-04-17T10:12:32.908Z,11.78
2023-04-17T10:13:31.670Z,11.75
2023-04-17T10:14:31.897Z,11.69
2023-04-17T10:15:31.703Z,11.61
2023-04-17T10:16:31.746Z,11.58
2023-04-17T10:17:32.022Z,11.57
2023-04-17T10:18:31.697Z,11.61
2023-04-17T10:19:31.737Z,11.65
2023-04-17T10:20:31.647Z,11.64
2023-04-17T10:21:31.647Z,11.62
2023-04-17T10:22:31.646Z,11.60
2023-04-17T10:23:31.773Z,11.58
2023-04-17T10:24:31.691Z,11.55
2023-04-17T10:25:31.547Z,11.58
2023-04-17T10:26:31.577Z,11.58
2023-04-17T10:27:31.550Z,11.57
2023-04-17T10:28:31.688Z,11.55
2023-04-17T10:29:31.515Z,11.55
2023-04-17T10:30:31.513Z,11.57
2023-04-17T10:31:31.641Z,11.62
2023-04-17T10:32:31.647Z,11.65
2023-04-17T10:33:31.468Z,11.65
2023-04-17T10:34:31.536Z,11.76
2023-04-17T10:35:31.451Z,11.94
2023-04-17T10:36:31.602Z,12.01
2023-04-17T10:37:31.417Z,11.96
2023-04-17T10:38:31.540Z,11.82
2023-04-17T10:39:31.463Z,11.72
2023-04-17T10:40:31.432Z,11.72
2023-04-17T10:41:31.409Z,11.73
2023-04-17T10:42:31.400Z,11.76
2023-04-17T10:43:31.367Z,11.96
2023-04-17T10:44:31.340Z,12.05
2023-04-17T10:45:31.406Z,12.10
2023-04-17T10:46:31.489Z,12.12
2023-04-17T10:47:31.356Z,12.07
2023-04-17T10:48:31.545Z,12.01
2023-04-17T10:49:31.290Z,11.90
2023-04-17T10:50:31.330Z,11.85
2023-04-17T10:51:31.271Z,11.88
2023-04-17T10:52:31.260Z,11.95
2023-04-17T10:53:31.358Z,12.02
2023-04-17T10:54:31.245Z,12.07
2023-04-17T10:55:31.490Z,12.07
2023-04-17T10:56:31.208Z,12.12
2023-04-17T10:57:31.425Z,12.21
2023-04-17T10:58:31.925Z,12.27
2023-04-17T10:59:31.205Z,12.24
2023-04-17T11:00:31.201Z,12.21
2023-04-17T11:01:31.203Z,12.17
2023-04-17T11:02:31.337Z,12.14
2023-04-17T11:03:31.144Z,12.14
2023-04-17T11:04:31.378Z,12.16
2023-04-17T11:05:31.280Z,12.14
2023-04-17T11:06:31.166Z,12.12
2023-04-17T11:07:31.201Z,12.12
2023-04-17T11:08:31.147Z,12.13
2023-04-17T11:09:31.088Z,12.13
2023-04-17T11:10:31.290Z,12.13
2023-04-17T11:11:43.603Z,12.13
2023-04-17T11:12:31.059Z,12.14
2023-04-17T11:13:31.041Z,12.14
2023-04-17T11:14:31.024Z,12.12
2023-04-17T11:15:31.014Z,12.05
2023-04-17T11:16:31.026Z,12.10
2023-04-17T11:17:31.082Z,12.17
2023-04-17T11:18:31.024Z,12.20
2023-04-17T11:19:30.969Z,12.24
2023-04-17T11:20:30.982Z,12.34
2023-04-17T11:21:30.976Z,12.45
2023-04-17T11:22:30.927Z,12.56
2023-04-17T11:23:31.052Z,12.59
2023-04-17T11:24:30.941Z,12.56
2023-04-17T11:25:30.913Z,12.56
2023-04-17T11:26:31.071Z,12.57
2023-04-17T11:27:30.909Z,12.57
2023-04-17T11:28:30.867Z,12.57
2023-04-17T11:29:30.927Z,12.57
2023-04-17T11:30:30.945Z,12.50
2023-04-17T11:31:30.971Z,12.47
2023-04-17T11:32:30.886Z,12.47
2023-04-17T11:33:30.816Z,12.46
2023-04-17T11:34:30.854Z,12.46
2023-04-17T11:35:31.491Z,12.45
2023-04-17T11:36:30.782Z,12.42
2023-04-17T11:37:30.794Z,12.39
2023-04-17T11:38:30.821Z,12.41
2023-04-17T11:39:30.844Z,12.34
2023-04-17T11:40:30.777Z,12.29
2023-04-17T11:41:30.737Z,12.32
2023-04-17T11:42:30.721Z,12.46
2023-04-17T11:43:30.712Z,12.52
2023-04-17T11:44:30.711Z,12.57
2023-04-17T11:45:30.679Z,12.62
2023-04-17T11:46:30.806Z,12.62
2023-04-17T11:47:30.712Z,12.62
2023-04-17T11:48:30.707Z,12.62
2023-04-17T11:49:30.677Z,12.65
2023-04-17T11:50:30.786Z,12.72
2023-04-17T11:51:30.628Z,12.75
2023-04-17T11:52:30.614Z,12.85
2023-04-17T11:53:30.704Z,12.93
2023-04-17T11:54:30.719Z,12.97
2023-04-17T11:55:30.669Z,13.00
2023-04-17T11:56:30.564Z,12.92
2023-04-17T11:57:30.610Z,12.78
2023-04-17T11:58:30.571Z,12.71
2023-04-17T11:59:30.555Z,12.62
2023-04-17T12:00:30.651Z,12.59
2023-04-17T12:01:30.523Z,12.53
2023-04-17T12:02:30.684Z,12.52
2023-04-17T12:03:30.825Z,12.52
2023-04-17T12:04:30.645Z,12.56
2023-04-17T12:05:30.576Z,12.56
2023-04-17T12:06:30.567Z,12.57
2023-04-17T12:07:30.443Z,12.56
2023-04-17T12:08:30.473Z,12.59
2023-04-17T12:09:30.435Z,12.60
2023-04-17T12:10:30.430Z,12.64
2023-04-17T12:11:30.409Z,12.64
2023-04-17T12:12:30.446Z,12.68
2023-04-17T12:13:30.392Z,12.67
2023-04-17T12:14:30.366Z,12.65
2023-04-17T12:15:30.350Z,12.60
2023-04-17T12:16:30.677Z,12.59
2023-04-17T12:17:30.459Z,12.59
2023-04-17T12:18:30.326Z,12.67
2023-04-17T12:19:30.420Z,12.75
2023-04-17T12:20:31.277Z,12.72
2023-04-17T12:21:30.436Z,12.72
2023-04-17T12:22:30.291Z,12.75
2023-04-17T12:23:30.364Z,12.79
2023-04-17T12:24:30.314Z,12.87
2023-04-17T12:25:30.484Z,13.03
2023-04-17T12:26:30.246Z,13.10
2023-04-17T12:27:30.267Z,13.10
2023-04-17T12:28:30.242Z,13.05
2023-04-17T12:29:43.118Z,13.03
2023-04-17T12:30:30.256Z,12.96
2023-04-17T12:31:30.235Z,12.93
2023-04-17T12:32:30.300Z,12.93
2023-04-17T12:33:30.208Z,12.83
2023-04-17T12:34:30.230Z,12.77
2023-04-17T12:35:30.207Z,12.75
2023-04-17T12:36:30.200Z,12.74
2023-04-17T12:37:30.168Z,12.70
2023-04-17T12:38:30.209Z,12.72
2023-04-17T12:39:30.178Z,12.75
2023-04-17T12:40:30.111Z,12.72
2023-04-17T12:41:30.113Z,12.77
2023-04-17T12:42:33.717Z,12.85
2023-04-17T12:43:30.089Z,12.96
2023-04-17T12:44:30.055Z,13.04
2023-04-17T12:45:30.197Z,13.12
2023-04-17T12:46:30.009Z,13.25
2023-04-17T12:47:30.160Z,13.41
2023-04-17T12:48:32.738Z,13.46
2023-04-17T12:49:30.012Z,13.33
2023-04-17T12:50:29.981Z,13.22
2023-04-17T12:51:30.167Z,13.05
2023-04-17T12:52:30.260Z,13.00
2023-04-17T12:53:29.963Z,12.93
2023-04-17T12:54:30.016Z,12.87
2023-04-17T12:55:29.934Z,12.86
2023-04-17T12:56:30.035Z,12.83
2023-04-17T12:57:29.902Z,12.83
2023-04-17T12:58:29.912Z,12.86
2023-04-17T12:59:29.923Z,12.87
2023-04-17T13:00:29.964Z,12.87
2023-04-17T13:01:30.086Z,12.85
2023-04-17T13:02:30.046Z,12.82
2023-04-17T13:03:30.012Z,12.82
2023-04-17T13:04:30.016Z,12.78
2023-04-17T13:05:29.903Z,12.75
2023-04-17T13:06:29.804Z,12.78
2023-04-17T13:07:29.821Z,12.75
2023-04-17T13:08:30.490Z,12.75
2023-04-17T13:09:29.785Z,12.77
2023-04-17T13:10:29.796Z,12.77